Time;durP1;ratioP1;P1;durP2;ratioP2;P2;SDS_P1;SDS_P2;PMS_P1;PMS_P2;Temp;Humidity;BMP_temperature;BMP_pressure;BME280_temperature;BME280_humidity;BME280_pressure;Samples;Min_cycle;Max_cycle;Signal;HPM_P1;HPM_P2
2021/09/23 00:00:22;;;;;;;55.70;35.80;;;;;;;11.40;95.48;101787.59;4946028;28;20398;-80
2021/09/23 00:03:01;;;;;;;53.58;38.28;;;;;;;11.42;94.50;101781.06;4935218;28;20055;-80
2021/09/23 00:05:31;;;;;;;52.63;36.40;;;;;;;11.32;94.34;101784.78;4931200;28;20478;-80
2021/09/23 00:07:58;;;;;;;57.22;38.33;;;;;;;11.15;95.53;101778.28;4939300;28;20040;-79
2021/09/23 00:10:42;;;;;;;51.78;37.17;;;;;;;11.10;95.74;101773.34;4933441;28;20059;-81
2021/09/23 00:13:08;;;;;;;60.70;39.05;;;;;;;11.02;95.74;101773.25;4958923;28;20417;-80
2021/09/23 00:15:35;;;;;;;61.17;41.15;;;;;;;10.92;96.65;101762.50;4943896;28;20039;-80
2021/09/23 00:18:05;;;;;;;58.40;40.22;;;;;;;10.90;96.75;101766.31;4943230;28;20051;-80
2021/09/23 00:20:33;;;;;;;51.53;37.22;;;;;;;10.86;97.25;101752.31;4944463;28;20055;-80
2021/09/23 00:22:59;;;;;;;47.65;35.20;;;;;;;10.92;96.75;101756.28;4942335;28;20043;-84
2021/09/23 00:25:28;;;;;;;49.95;34.22;;;;;;;10.89;96.32;101748.50;4946295;28;20043;-80
2021/09/23 00:27:55;;;;;;;51.28;34.35;;;;;;;10.80;96.02;101755.56;4945491;28;20477;-82
2021/09/23 00:30:20;;;;;;;49.88;33.50;;;;;;;10.74;95.90;101756.16;4944399;28;20046;-80
2021/09/23 00:32:46;;;;;;;52.70;36.17;;;;;;;10.65;95.76;101755.16;4943993;28;20406;-81
2021/09/23 00:35:11;;;;;;;52.80;35.70;;;;;;;10.65;96.03;101759.69;4940939;28;20043;-81
2021/09/23 00:37:37;;;;;;;52.85;35.90;;;;;;;10.50;96.31;101754.75;4943056;28;20040;-80
2021/09/23 00:40:08;;;;;;;53.95;36.08;;;;;;;10.43;96.92;101758.97;4943159;28;20046;-80
2021/09/23 00:42:35;;;;;;;53.33;35.85;;;;;;;10.40;97.16;101756.56;4942127;28;20102;-80
2021/09/23 00:45:01;;;;;;;52.85;36.70;;;;;;;10.29;97.59;101756.69;4942695;28;20383;-82
2021/09/23 00:47:27;;;;;;;51.25;36.40;;;;;;;10.22;97.92;101758.19;4943347;28;20354;-82
2021/09/23 00:49:53;;;;;;;60.03;39.50;;;;;;;10.17;98.44;101748.72;4942972;28;20050;-82
2021/09/23 00:52:19;;;;;;;54.35;37.67;;;;;;;10.14;99.35;101754.38;4945791;28;20470;-81
2021/09/23 00:54:46;;;;;;;54.75;37.33;;;;;;;10.14;98.43;101751.69;4944664;28;20070;-82
2021/09/23 00:57:15;;;;;;;56.97;39.10;;;;;;;10.12;98.05;101750.13;4941738;28;20047;-81
2021/09/23 00:59:41;;;;;;;62.20;39.63;;;;;;;10.06;98.36;101751.50;4943238;28;20043;-80
2021/09/23 01:02:08;;;;;;;59.08;40.42;;;;;;;9.99;98.86;101736.97;4943185;28;20077;-80
2021/09/23 01:04:34;;;;;;;58.42;39.55;;;;;;;9.94;99.34;101734.69;4947462;28;20055;-80
2021/09/23 01:07:00;;;;;;;60.00;40.70;;;;;;;9.93;99.79;101730.31;4945754;28;20051;-83
2021/09/23 01:09:26;;;;;;;62.20;42.28;;;;;;;9.92;99.88;101722.41;4946600;28;20414;-82
2021/09/23 01:11:51;;;;;;;57.53;38.72;;;;;;;9.92;100.00;101717.03;4947647;28;20047;-81
2021/09/23 01:14:17;;;;;;;54.08;39.30;;;;;;;9.86;99.39;101714.91;4948022;28;20561;-81
2021/09/23 01:16:42;;;;;;;65.20;40.97;;;;;;;9.87;99.91;101706.75;4942941;28;20039;-81
2021/09/23 01:19:07;;;;;;;58.42;40.40;;;;;;;9.91;100.00;101710.84;4950738;28;20058;-81
2021/09/23 01:21:33;;;;;;;59.78;41.22;;;;;;;9.99;100.00;101704.78;4944550;28;20047;-83
2021/09/23 01:23:58;;;;;;;55.17;36.67;;;;;;;10.04;99.58;101710.59;4946329;28;20074;-82
2021/09/23 01:26:29;;;;;;;53.80;37.65;;;;;;;10.02;99.49;101707.19;4946990;28;20047;-80
2021/09/23 01:28:55;;;;;;;52.08;35.10;;;;;;;9.92;99.13;101704.47;4945654;28;20048;-81
2021/09/23 01:31:21;;;;;;;52.38;36.03;;;;;;;9.86;98.77;101691.63;4947916;28;20081;-81
2021/09/23 01:33:47;;;;;;;54.13;37.13;;;;;;;9.84;99.24;101690.94;4941393;28;20066;-80
2021/09/23 01:36:12;;;;;;;56.80;39.00;;;;;;;9.84;99.69;101684.72;4939366;28;20059;-81
2021/09/23 01:38:38;;;;;;;63.55;43.72;;;;;;;9.85;99.78;101687.25;4939587;28;20063;-80
2021/09/23 01:41:03;;;;;;;53.65;37.78;;;;;;;9.81;99.73;101674.25;4936088;28;20051;-80
2021/09/23 01:43:29;;;;;;;55.05;37.38;;;;;;;9.83;99.66;101672.31;4939916;28;20247;-84
2021/09/23 01:45:54;;;;;;;64.00;44.00;;;;;;;9.92;100.00;101676.81;4938052;28;20047;-81
2021/09/23 01:48:19;;;;;;;58.25;41.03;;;;;;;9.94;99.58;101680.22;4924821;28;20054;-80
2021/09/23 01:50:46;;;;;;;51.70;37.63;;;;;;;9.88;98.46;101676.25;4929232;29;20046;-80
2021/09/23 01:53:11;;;;;;;53.63;36.50;;;;;;;9.82;98.89;101673.28;4928119;28;20055;-82
2021/09/23 01:55:37;;;;;;;53.90;36.75;;;;;;;9.84;98.86;101672.19;4935372;28;20067;-83
2021/09/23 01:58:02;;;;;;;54.47;37.00;;;;;;;9.78;98.71;101671.84;4927029;29;20470;-81
2021/09/23 02:00:28;;;;;;;60.58;39.05;;;;;;;9.82;99.83;101667.94;4940885;28;20410;-80
2021/09/23 02:02:55;;;;;;;55.08;38.97;;;;;;;9.90;99.62;101676.97;4946039;28;20425;-80
2021/09/23 02:05:21;;;;;;;49.58;35.00;;;;;;;9.88;98.33;101678.09;4946143;28;20047;-82
2021/09/23 02:07:47;;;;;;;50.28;36.00;;;;;;;9.87;98.64;101668.38;4934061;28;20054;-83
2021/09/23 02:10:12;;;;;;;47.55;33.95;;;;;;;9.73;98.16;101666.09;4936263;28;20044;-80
2021/09/23 02:12:38;;;;;;;53.80;36.92;;;;;;;9.67;98.59;101659.44;4936633;28;20043;-80
2021/09/23 02:15:05;;;;;;;60.35;41.40;;;;;;;9.70;99.46;101657.31;4937433;28;20082;-80
2021/09/23 02:17:30;;;;;;;56.40;38.63;;;;;;;9.71;100.00;101659.00;4939270;28;20079;-80
2021/09/23 02:19:56;;;;;;;56.42;40.55;;;;;;;9.75;100.00;101653.38;4944713;28;20136;-84
2021/09/23 02:22:22;;;;;;;51.83;38.08;;;;;;;9.68;99.35;101645.88;4946655;28;20952;-80
2021/09/23 02:24:47;;;;;;;56.05;37.25;;;;;;;9.63;98.98;101629.38;4946442;28;20051;-81
2021/09/23 02:27:13;;;;;;;55.75;39.92;;;;;;;9.63;99.80;101618.66;4948359;28;21825;-80
2021/09/23 02:29:38;;;;;;;63.58;41.58;;;;;;;9.59;100.00;101614.56;4945899;28;20046;-81
2021/09/23 02:32:06;;;;;;;66.47;45.08;;;;;;;9.66;100.00;101598.75;4943654;28;20537;-84
2021/09/23 02:34:31;;;;;;;60.33;42.33;;;;;;;9.74;100.00;101608.81;4946054;28;20047;-82
2021/09/23 02:36:57;;;;;;;64.00;42.30;;;;;;;9.86;100.00;101594.28;4938617;28;20069;-80
2021/09/23 02:39:23;;;;;;;60.60;42.40;;;;;;;9.98;100.00;101586.94;4939061;28;20644;-80
2021/09/23 02:41:48;;;;;;;56.42;40.13;;;;;;;9.96;99.19;101587.09;4943278;28;20052;-80
2021/09/23 02:44:14;;;;;;;64.82;40.67;;;;;;;10.00;99.65;101576.94;4938971;28;20039;-80
2021/09/23 02:46:39;;;;;;;56.90;40.55;;;;;;;10.07;99.14;101576.22;4942182;28;20098;-79
2021/09/23 02:49:05;;;;;;;61.05;38.08;;;;;;;10.10;98.98;101573.25;4933904;28;20056;-81
2021/09/23 02:51:30;;;;;;;54.88;37.63;;;;;;;10.15;99.29;101570.97;4943458;28;20114;-80
2021/09/23 02:53:56;;;;;;;56.58;39.63;;;;;;;10.20;98.90;101562.50;4944845;28;20083;-79
2021/09/23 02:56:21;;;;;;;52.15;38.25;;;;;;;10.23;98.31;101569.44;4938306;28;20537;-81
2021/09/23 02:58:47;;;;;;;57.88;39.00;;;;;;;10.29;98.39;101566.22;4935207;28;20043;-79
2021/09/23 03:01:14;;;;;;;53.08;36.45;;;;;;;10.28;98.04;101568.06;4940480;28;20558;-79
2021/09/23 03:03:40;;;;;;;54.25;36.80;;;;;;;10.33;98.11;101563.09;4942438;28;20051;-79
2021/09/23 03:06:05;;;;;;;58.13;36.47;;;;;;;10.34;97.34;101555.91;4941855;28;20939;-79
2021/09/23 03:08:30;;;;;;;54.72;36.03;;;;;;;10.39;97.92;101561.69;4939020;28;20051;-79
2021/09/23 03:10:56;;;;;;;54.10;37.08;;;;;;;10.34;96.83;101566.63;4907550;29;20511;-82
2021/09/23 03:13:21;;;;;;;56.45;37.10;;;;;;;10.41;97.82;101564.22;4931850;28;20214;-79
2021/09/23 03:15:47;;;;;;;58.63;36.15;;;;;;;10.45;97.94;101574.53;4942581;28;20066;-82
2021/09/23 03:18:13;;;;;;;56.50;35.88;;;;;;;10.50;97.49;101561.53;4944516;28;20498;-79
2021/09/23 03:20:40;;;;;;;51.90;35.53;;;;;;;10.54;97.18;101560.22;4944298;28;20097;-81
2021/09/23 03:23:06;;;;;;;55.90;38.05;;;;;;;10.53;96.72;101557.66;4943639;28;20430;-78
2021/09/23 03:25:33;;;;;;;52.97;35.05;;;;;;;10.57;96.88;101559.09;4938490;28;20055;-79
2021/09/23 03:27:58;;;;;;;56.97;36.28;;;;;;;10.57;96.44;101569.81;4934729;28;20058;-80
2021/09/23 03:30:24;;;;;;;55.80;35.90;;;;;;;10.56;96.72;101562.78;4948969;28;20051;-81
2021/09/23 03:32:49;;;;;;;54.40;34.55;;;;;;;10.48;96.07;101554.59;4947292;28;20124;-79
2021/09/23 03:35:15;;;;;;;54.60;35.85;;;;;;;10.52;96.63;101551.47;4945019;28;20126;-79
2021/09/23 03:37:40;;;;;;;56.20;37.33;;;;;;;10.48;97.22;101550.06;4944282;28;20047;-78
2021/09/23 03:40:07;;;;;;;57.75;37.67;;;;;;;10.51;96.97;101555.16;4943977;28;20047;-81
2021/09/23 03:42:33;;;;;;;59.20;36.50;;;;;;;10.48;96.80;101551.91;4944353;28;20039;-79
2021/09/23 03:44:58;;;;;;;56.30;36.78;;;;;;;10.49;96.92;101546.41;4944949;28;20285;-79
2021/09/23 03:47:24;;;;;;;57.78;36.03;;;;;;;10.46;97.07;101538.63;4945939;28;20066;-84
2021/09/23 03:49:49;;;;;;;60.47;39.80;;;;;;;10.47;97.09;101542.16;4942587;28;20051;-81
2021/09/23 03:52:14;;;;;;;57.35;37.90;;;;;;;10.49;96.88;101546.41;4947142;28;20409;-80
2021/09/23 03:54:40;;;;;;;62.38;40.25;;;;;;;10.46;96.44;101540.47;4944229;28;20058;-79
2021/09/23 03:57:05;;;;;;;68.07;42.55;;;;;;;10.42;97.33;101531.03;4940758;28;20054;-82
2021/09/23 03:59:31;;;;;;;68.00;43.55;;;;;;;10.38;97.49;101530.47;4939641;28;20046;-82
2021/09/23 04:01:56;;;;;;;67.80;45.22;;;;;;;10.41;97.34;101526.66;4948817;28;20151;-80
2021/09/23 04:04:21;;;;;;;68.88;43.63;;;;;;;10.41;98.56;101532.84;4957028;28;20051;-79
2021/09/23 04:06:47;;;;;;;68.05;43.92;;;;;;;10.46;97.72;101519.00;4960079;28;20051;-80
2021/09/23 04:09:13;;;;;;;68.13;43.65;;;;;;;10.48;97.45;101528.59;4942821;28;20469;-82
2021/09/23 04:11:40;;;;;;;72.10;46.90;;;;;;;10.47;97.71;101526.94;4940983;28;20103;-81
2021/09/23 04:14:06;;;;;;;73.78;47.03;;;;;;;10.50;98.06;101523.94;4949497;28;20450;-80
2021/09/23 04:16:33;;;;;;;65.38;42.70;;;;;;;10.49;97.74;101524.94;4937230;28;20055;-84
2021/09/23 04:18:59;;;;;;;70.40;45.70;;;;;;;10.50;97.76;101526.63;4931612;28;20704;-81
2021/09/23 04:21:25;;;;;;;69.35;47.08;;;;;;;10.54;97.16;101522.66;4938582;28;20039;-81
2021/09/23 04:23:50;;;;;;;69.22;46.20;;;;;;;10.56;97.16;101509.09;4936818;28;20047;-81
2021/09/23 04:26:16;;;;;;;73.38;47.90;;;;;;;10.52;98.09;101521.94;4926259;29;20046;-84
2021/09/23 04:28:41;;;;;;;69.68;44.35;;;;;;;10.56;97.87;101525.22;4918423;29;20048;-83
2021/09/23 04:31:07;;;;;;;71.45;48.90;;;;;;;10.57;97.26;101522.34;4918670;29;20569;-80
2021/09/23 04:33:32;;;;;;;73.88;47.05;;;;;;;10.55;97.54;101521.66;4921880;29;20547;-82
2021/09/23 04:35:58;;;;;;;68.60;41.20;;;;;;;10.54;98.28;101511.91;4918384;29;20051;-81
2021/09/23 04:38:23;;;;;;;71.53;43.08;;;;;;;10.56;98.16;101512.63;4904269;29;20063;-81
2021/09/23 04:40:49;;;;;;;68.03;43.00;;;;;;;10.57;97.95;101506.25;4909260;29;20156;-83
2021/09/23 04:43:16;;;;;;;64.65;42.63;;;;;;;10.64;97.49;101511.88;4919081;29;20094;-80
2021/09/23 04:45:42;;;;;;;69.45;43.65;;;;;;;10.64;97.22;101506.50;4916419;29;20051;-83
2021/09/23 04:48:07;;;;;;;68.97;44.13;;;;;;;10.68;96.74;101512.44;4920365;29;20070;-84
2021/09/23 04:50:32;;;;;;;71.60;42.15;;;;;;;10.67;97.55;101510.75;4930636;28;20102;-83
2021/09/23 04:53:00;;;;;;;69.38;45.30;;;;;;;10.67;96.78;101508.06;4938474;28;20744;-82
2021/09/23 04:55:26;;;;;;;66.32;43.40;;;;;;;10.67;96.99;101502.69;4921383;29;20059;-81
2021/09/23 04:57:51;;;;;;;66.32;42.92;;;;;;;10.68;96.61;101502.56;4923056;29;20047;-81
2021/09/23 05:00:17;;;;;;;69.90;46.22;;;;;;;10.66;97.09;101498.31;4920290;29;21154;-84
2021/09/23 05:02:42;;;;;;;66.55;41.58;;;;;;;10.63;97.77;101488.72;4919064;29;20071;-81
2021/09/23 05:05:08;;;;;;;66.85;42.53;;;;;;;10.63;97.52;101490.56;4922973;29;20044;-80
2021/09/23 05:07:33;;;;;;;63.05;42.08;;;;;;;10.63;97.30;101483.34;4921555;29;20048;-81
2021/09/23 05:09:59;;;;;;;67.47;42.05;;;;;;;10.65;97.22;101481.38;4920563;29;20103;-81
2021/09/23 05:12:24;;;;;;;71.40;40.88;;;;;;;10.59;97.70;101472.06;4923611;28;20095;-80
2021/09/23 05:14:50;;;;;;;69.55;42.17;;;;;;;10.60;98.39;101463.03;4925237;29;20308;-85
2021/09/23 05:17:15;;;;;;;68.28;43.75;;;;;;;10.69;97.24;101455.91;4923472;29;20176;-82
2021/09/23 05:19:41;;;;;;;66.97;42.42;;;;;;;10.70;97.10;101457.59;4926298;28;20104;-81
2021/09/23 05:22:06;;;;;;;71.05;43.50;;;;;;;10.69;97.01;101455.91;4923004;29;20059;-81
2021/09/23 05:24:32;;;;;;;67.80;44.03;;;;;;;10.68;96.88;101450.72;4924170;29;20483;-81
2021/09/23 05:26:57;;;;;;;67.15;39.45;;;;;;;10.68;98.08;101456.06;4923352;29;20539;-80
2021/09/23 05:29:22;;;;;;;63.38;43.38;;;;;;;10.70;97.27;101457.59;4925427;28;20902;-81
2021/09/23 05:31:48;;;;;;;64.53;42.38;;;;;;;10.75;96.58;101446.41;4917462;29;20055;-82
2021/09/23 05:34:13;;;;;;;65.05;41.33;;;;;;;10.76;96.75;101445.41;4923320;29;20040;-83
2021/09/23 05:36:39;;;;;;;65.57;40.38;;;;;;;10.75;97.11;101433.00;4919950;29;20490;-81
2021/09/23 05:39:04;;;;;;;64.72;41.22;;;;;;;10.78;96.91;101432.69;4919886;28;20145;-84
2021/09/23 05:41:30;;;;;;;60.33;41.35;;;;;;;10.80;96.66;101433.41;4920860;28;20106;-81
2021/09/23 05:43:56;;;;;;;62.50;41.60;;;;;;;10.82;97.15;101439.47;4922652;29;20048;-81
2021/09/23 05:46:21;;;;;;;59.08;38.58;;;;;;;10.82;96.74;101443.00;4922473;29;20059;-81
2021/09/23 05:48:47;;;;;;;59.15;37.80;;;;;;;10.87;96.61;101439.00;4939077;28;20450;-81
2021/09/23 05:51:12;;;;;;;57.13;38.33;;;;;;;10.90;96.19;101428.81;4934433;28;20052;-84
2021/09/23 05:53:38;;;;;;;50.88;35.05;;;;;;;10.92;96.07;101416.06;4942267;28;20413;-81
2021/09/23 05:56:04;;;;;;;54.38;34.65;;;;;;;10.96;96.29;101430.91;4948691;28;20050;-81
2021/09/23 05:58:29;;;;;;;53.75;33.58;;;;;;;11.00;95.63;101426.91;4948028;28;20047;-81
2021/09/23 06:00:55;;;;;;;50.08;34.60;;;;;;;11.01;95.65;101428.59;4934598;28;20043;-81
2021/09/23 06:03:20;;;;;;;52.20;33.85;;;;;;;11.07;95.53;101427.97;4946938;28;20074;-81
2021/09/23 06:05:47;;;;;;;52.85;35.33;;;;;;;11.12;94.85;101419.47;4937459;28;20350;-83
2021/09/23 06:08:13;;;;;;;50.35;34.85;;;;;;;11.17;94.29;101427.09;4945704;28;20043;-82
2021/09/23 06:10:38;;;;;;;53.90;33.15;;;;;;;11.18;95.12;101431.44;4947903;28;20047;-82
2021/09/23 06:13:05;;;;;;;47.35;32.47;;;;;;;11.24;94.65;101418.25;4945787;28;20050;-80
2021/09/23 06:15:31;;;;;;;51.65;33.47;;;;;;;11.28;94.43;101408.06;4946509;28;20047;-82
2021/09/23 06:17:56;;;;;;;50.13;31.90;;;;;;;11.32;94.63;101397.84;4947846;28;20590;-83
2021/09/23 06:20:22;;;;;;;53.25;33.35;;;;;;;11.38;93.87;101403.44;4946685;28;20051;-81
2021/09/23 06:22:47;;;;;;;47.85;34.10;;;;;;;11.45;93.66;101396.47;4948340;28;20050;-82
2021/09/23 06:25:13;;;;;;;49.08;33.65;;;;;;;11.50;93.21;101396.81;4942598;28;20047;-81
2021/09/23 06:27:38;;;;;;;45.78;30.98;;;;;;;11.55;93.61;101392.81;4946671;28;20406;-81
2021/09/23 06:30:04;;;;;;;47.50;30.23;;;;;;;11.62;92.75;101404.63;4944875;28;20548;-84
2021/09/23 06:32:30;;;;;;;43.88;29.00;;;;;;;11.67;92.88;101413.06;4943739;28;20066;-80
2021/09/23 06:34:55;;;;;;;41.53;29.73;;;;;;;11.73;92.13;101399.00;4932772;28;20126;-83
2021/09/23 06:37:21;;;;;;;46.30;32.03;;;;;;;11.78;92.00;101412.00;4943728;28;20048;-81
2021/09/23 06:39:46;;;;;;;47.65;30.77;;;;;;;11.81;92.27;101399.06;4941463;28;20051;-81
2021/09/23 06:42:15;;;;;;;44.72;27.25;;;;;;;11.86;92.55;101396.78;4945050;28;20048;-82
2021/09/23 06:44:41;;;;;;;;;;;;;;;11.91;92.18;101401.66;4943764;28;20126;-81
2021/09/23 06:47:06;;;;;;;44.00;28.15;;;;;;;11.88;91.90;101388.53;4943942;28;20021;-81
2021/09/23 06:49:31;;;;;;;42.35;29.45;;;;;;;11.92;91.87;101389.94;4944363;28;20055;-82
2021/09/23 06:51:57;;;;;;;39.97;27.83;;;;;;;11.99;91.59;101384.75;4945658;28;20050;-80
2021/09/23 06:54:22;;;;;;;43.22;28.75;;;;;;;12.05;91.81;101378.72;4924717;29;20059;-81
2021/09/23 06:56:48;;;;;;;39.38;27.75;;;;;;;12.12;91.35;101374.41;4923957;28;20516;-84
2021/09/23 06:59:13;;;;;;;44.55;29.70;;;;;;;12.18;90.64;101368.38;4928011;29;20147;-80
2021/09/23 07:01:40;;;;;;;37.13;25.90;;;;;;;12.26;91.00;101383.75;4925292;28;20040;-81
2021/09/23 07:04:05;;;;;;;42.80;28.63;;;;;;;12.33;90.33;101374.84;4926590;29;20576;-82
2021/09/23 07:06:31;;;;;;;38.03;24.73;;;;;;;12.40;90.99;101378.59;4927417;29;20044;-81
2021/09/23 07:08:56;;;;;;;39.92;27.80;;;;;;;12.47;90.37;101383.31;4924578;29;20187;-85
2021/09/23 07:11:22;;;;;;;37.85;26.00;;;;;;;12.52;90.21;101373.75;4924999;29;20119;-84
2021/09/23 07:13:47;;;;;;;42.97;27.83;;;;;;;12.63;89.89;101386.09;4924940;29;20059;-81
2021/09/23 07:16:13;;;;;;;41.45;27.77;;;;;;;12.67;89.78;101384.72;4925947;28;20569;-83
2021/09/23 07:18:39;;;;;;;38.38;26.50;;;;;;;12.73;90.27;101391.31;4925618;28;20048;-84
2021/09/23 07:21:07;;;;;;;37.55;26.05;;;;;;;12.77;90.40;101393.50;4929241;29;20066;-82
2021/09/23 07:23:33;;;;;;;41.07;28.27;;;;;;;12.81;90.34;101376.03;4924923;29;20051;-83
2021/09/23 07:25:59;;;;;;;40.20;27.20;;;;;;;12.85;90.13;101369.28;4925932;29;20287;-85
2021/09/23 07:28:26;;;;;;;40.50;29.08;;;;;;;12.86;89.91;101373.69;4926204;29;20216;-82
2021/09/23 07:30:52;;;;;;;43.80;30.13;;;;;;;12.91;90.33;101377.72;4926821;28;20162;-81
2021/09/23 07:33:18;;;;;;;42.67;29.50;;;;;;;12.96;90.65;101378.06;4925986;29;20546;-81
2021/09/23 07:35:43;;;;;;;43.33;31.00;;;;;;;12.98;90.87;101376.91;4925311;29;21110;-82
2021/09/23 07:38:10;;;;;;;38.67;28.52;;;;;;;13.01;90.87;101378.44;4927403;28;20188;-82
2021/09/23 07:40:35;;;;;;;40.65;29.65;;;;;;;13.03;91.52;101353.00;4927099;29;20051;-83
2021/09/23 07:43:01;;;;;;;42.58;29.70;;;;;;;13.08;92.00;101347.94;4936235;28;20047;-82
2021/09/23 07:45:27;;;;;;;46.72;32.70;;;;;;;13.13;90.98;101355.53;4939503;28;20058;-82
2021/09/23 07:47:52;;;;;;;45.72;30.73;;;;;;;13.18;92.22;101334.31;4933538;28;20046;-85
2021/09/23 07:50:18;;;;;;;44.72;29.73;;;;;;;13.28;92.46;101324.22;4932179;28;20047;-82
2021/09/23 07:52:43;;;;;;;41.58;28.30;;;;;;;13.36;91.92;101328.78;4941012;28;20786;-84
2021/09/23 07:55:09;;;;;;;42.40;30.17;;;;;;;13.39;91.28;101325.75;4925136;29;20546;-81
2021/09/23 07:57:34;;;;;;;44.20;29.40;;;;;;;13.47;92.17;101311.44;4934043;28;20118;-81
2021/09/23 08:00:01;;;;;;;45.50;29.80;;;;;;;13.56;92.01;101310.41;4936409;28;20163;-84
2021/09/23 08:02:27;;;;;;;41.92;30.25;;;;;;;13.63;92.34;101305.16;4938792;28;20055;-81
2021/09/23 08:04:52;;;;;;;46.92;30.40;;;;;;;13.70;92.24;101290.81;4933315;28;20044;-86
2021/09/23 08:07:18;;;;;;;44.17;29.30;;;;;;;13.77;92.65;101285.56;4938831;28;20121;-82
2021/09/23 08:09:45;;;;;;;42.00;30.00;;;;;;;13.83;92.32;101284.84;4943960;28;20171;-82
2021/09/23 08:12:11;;;;;;;40.55;29.85;;;;;;;13.94;92.60;101287.19;4943875;28;20056;-86
2021/09/23 08:14:37;;;;;;;39.35;28.27;;;;;;;14.02;92.64;101280.94;4935681;28;20083;-81
2021/09/23 08:17:04;;;;;;;43.58;30.33;;;;;;;14.07;92.23;101286.66;4942813;28;20242;-85
2021/09/23 08:19:31;;;;;;;43.83;28.88;;;;;;;14.14;91.91;101287.63;4935268;28;20043;-81
2021/09/23 08:21:57;;;;;;;39.13;28.70;;;;;;;14.21;91.56;101287.75;4934311;28;20047;-81
2021/09/23 08:24:22;;;;;;;38.90;27.92;;;;;;;14.29;91.95;101286.88;4923255;29;20039;-84
2021/09/23 08:26:48;;;;;;;40.63;28.25;;;;;;;14.41;92.33;101286.31;4931646;28;20047;-84
2021/09/23 08:29:13;;;;;;;43.28;29.13;;;;;;;14.48;91.62;101282.91;4944281;28;20051;-82
2021/09/23 08:31:39;;;;;;;40.30;28.67;;;;;;;14.50;92.46;101291.63;4949365;28;20077;-83
2021/09/23 08:34:06;;;;;;;43.97;28.27;;;;;;;14.55;92.22;101295.53;4940645;28;20082;-84
2021/09/23 08:36:33;;;;;;;39.10;28.70;;;;;;;14.62;91.40;101295.66;4935318;28;20052;-82
2021/09/23 08:38:58;;;;;;;41.28;27.95;;;;;;;14.71;91.80;101302.69;4939914;28;20097;-81
2021/09/23 08:41:24;;;;;;;41.05;28.40;;;;;;;14.78;92.11;101302.81;4933894;28;20819;-81
2021/09/23 08:43:50;;;;;;;41.65;28.27;;;;;;;14.93;92.10;101297.47;4940706;28;20051;-81
2021/09/23 08:46:16;;;;;;;43.78;30.00;;;;;;;15.02;90.75;101294.53;4930462;28;20102;-81
2021/09/23 08:48:42;;;;;;;40.42;29.10;;;;;;;15.12;89.90;101302.38;4927472;28;20052;-82
2021/09/23 08:51:07;;;;;;;41.08;28.63;;;;;;;15.25;90.14;101296.38;4934295;28;20790;-86
2021/09/23 08:53:33;;;;;;;40.58;26.85;;;;;;;15.35;90.44;101299.66;4936067;28;20097;-82
2021/09/23 08:55:58;;;;;;;41.83;27.67;;;;;;;15.45;90.04;101312.91;4931605;28;20514;-84
2021/09/23 08:58:24;;;;;;;36.30;25.65;;;;;;;15.56;90.88;101299.78;4934459;28;20152;-82
2021/09/23 09:01:06;;;;;;;38.00;26.65;;;;;;;15.66;89.79;101280.56;4939268;28;20391;-82
2021/09/23 09:03:33;;;;;;;36.97;24.73;;;;;;;15.78;90.20;101298.06;4936858;28;20035;-82
2021/09/23 09:06:04;;;;;;;36.58;25.75;;;;;;;15.93;89.52;101291.81;4939283;28;20054;-85
2021/09/23 09:08:32;;;;;;;34.17;24.52;;;;;;;16.07;90.22;101273.88;4940311;28;20047;-81
2021/09/23 09:11:02;;;;;;;34.47;25.88;;;;;;;16.18;89.13;101276.09;4940263;28;20097;-83
2021/09/23 09:13:42;;;;;;;34.28;25.15;;;;;;;16.26;88.38;101273.28;4936641;28;20486;-83
2021/09/23 09:16:16;;;;;;;39.53;24.90;;;;;;;16.17;88.49;101296.94;4938679;28;20503;-81
2021/09/23 09:18:42;;;;;;;35.97;25.30;;;;;;;16.05;89.13;101281.34;4942082;28;20055;-81
2021/09/23 09:21:11;;;;;;;35.47;25.80;;;;;;;16.02;89.95;101299.66;4932701;28;20055;-82
2021/09/23 09:23:48;;;;;;;37.10;26.75;;;;;;;15.95;89.94;101304.13;4926402;28;20071;-81
2021/09/23 09:26:21;;;;;;;38.60;26.52;;;;;;;15.93;90.60;101289.94;4943158;28;20078;-81
2021/09/23 09:28:50;;;;;;;37.88;25.95;;;;;;;15.89;91.06;101294.06;4942493;28;20082;-81
2021/09/23 09:31:16;;;;;;;39.20;26.88;;;;;;;15.86;91.17;101277.34;4941854;28;20050;-81
2021/09/23 09:33:45;;;;;;;41.60;27.42;;;;;;;15.80;91.49;101287.06;4947098;28;20043;-83
2021/09/23 09:36:33;;;;;;;38.40;28.15;;;;;;;15.81;91.88;101283.31;4948402;28;20062;-82
2021/09/23 09:39:12;;;;;;;37.87;26.63;;;;;;;15.78;92.26;101281.81;4946461;28;20450;-84
2021/09/23 09:41:40;;;;;;;41.85;27.00;;;;;;;15.82;92.33;101271.44;4947559;28;20057;-81
2021/09/23 09:44:08;;;;;;;36.65;27.52;;;;;;;15.86;92.81;101275.47;4943379;28;20051;-86
2021/09/23 09:46:38;;;;;;;38.88;24.10;;;;;;;15.94;92.28;101269.97;4947227;28;20043;-83
2021/09/23 09:49:04;;;;;;;36.10;25.38;;;;;;;16.02;91.95;101259.06;4924679;29;20039;-82
2021/09/23 09:51:46;;;;;;;31.80;21.35;;;;;;;16.10;90.59;101270.78;4929837;29;20071;-81
2021/09/23 09:54:13;;;;;;;32.10;20.30;;;;;;;16.21;90.26;101264.91;4927926;28;20127;-81
2021/09/23 09:56:42;;;;;;;28.17;19.27;;;;;;;16.24;89.12;101261.81;4927513;29;20065;-83
2021/09/23 09:59:15;;;;;;;27.05;19.27;;;;;;;16.27;89.57;101258.72;4925972;29;20048;-84
2021/09/23 10:01:43;;;;;;;28.25;19.10;;;;;;;16.31;89.82;101267.28;4937317;28;20046;-86
2021/09/23 10:04:10;;;;;;;27.60;19.77;;;;;;;16.37;89.30;101263.81;4945502;28;20067;-83
2021/09/23 10:06:38;;;;;;;27.27;17.67;;;;;;;16.39;89.12;101251.75;4940743;28;20090;-85
2021/09/23 10:09:04;;;;;;;28.00;19.95;;;;;;;16.43;89.20;101249.53;4940293;28;20043;-83
2021/09/23 10:11:29;;;;;;;25.15;19.02;;;;;;;16.53;89.10;101254.63;4948899;28;20054;-83
2021/09/23 10:13:56;;;;;;;27.15;18.92;;;;;;;16.55;87.79;101237.16;4937018;28;20418;-85
2021/09/23 10:16:22;;;;;;;29.02;19.02;;;;;;;16.56;88.50;101240.69;4938235;28;20118;-82
2021/09/23 10:18:48;;;;;;;32.10;19.08;;;;;;;16.57;88.38;101247.78;4940085;28;20082;-82
2021/09/23 10:21:14;;;;;;;27.40;20.27;;;;;;;16.58;88.06;101260.31;4937698;28;20043;-85
2021/09/23 10:23:40;;;;;;;24.95;18.73;;;;;;;16.57;88.04;101243.22;4937349;28;20047;-85
2021/09/23 10:26:13;;;;;;;26.58;18.38;;;;;;;16.61;88.05;101257.22;4932246;28;20055;-84
2021/09/23 10:28:45;;;;;;;29.67;19.33;;;;;;;16.60;88.12;101274.47;4934679;28;20050;-81
2021/09/23 10:31:11;;;;;;;30.20;18.45;;;;;;;16.64;87.88;101270.38;4939969;28;20043;-81
2021/09/23 10:33:39;;;;;;;27.75;18.85;;;;;;;16.66;87.08;101252.91;4946639;28;20078;-81
2021/09/23 10:36:09;;;;;;;22.38;18.25;;;;;;;16.70;86.72;101253.34;4947182;28;20516;-86
2021/09/23 10:38:36;;;;;;;27.98;18.40;;;;;;;16.75;87.49;101242.78;4944555;28;20054;-85
2021/09/23 10:41:02;;;;;;;24.80;17.42;;;;;;;16.88;86.71;101229.34;4944931;28;20043;-81
2021/09/23 10:43:29;;;;;;;26.70;18.08;;;;;;;16.97;86.32;101229.22;4948011;28;20501;-82
2021/09/23 10:45:56;;;;;;;26.08;17.30;;;;;;;16.99;85.62;101230.69;4944774;28;20047;-82
2021/09/23 10:48:23;;;;;;;23.13;16.88;;;;;;;17.09;84.22;101225.78;4943592;28;20039;-86
2021/09/23 10:50:49;;;;;;;21.55;14.80;;;;;;;17.13;82.68;101247.94;4946799;28;20052;-82
2021/09/23 10:53:15;;;;;;;19.42;14.57;;;;;;;17.14;82.32;101239.56;4945999;28;20500;-83
2021/09/23 10:55:42;;;;;;;20.08;14.18;;;;;;;17.17;82.51;101254.63;4945599;28;20047;-80
2021/09/23 10:58:13;;;;;;;24.13;14.85;;;;;;;17.19;82.13;101246.31;4945412;28;20450;-81
2021/09/23 11:00:38;;;;;;;20.60;14.27;;;;;;;17.20;82.05;101248.81;4944427;28;20052;-84
2021/09/23 11:03:08;;;;;;;18.55;15.02;;;;;;;17.16;82.25;101239.41;4944260;28;20050;-83
2021/09/23 11:05:35;;;;;;;20.80;15.80;;;;;;;17.17;82.38;101240.22;4926359;28;20391;-83